Latest Weather Observations for Hogan Island

IDT60801

Issued at 8:05 pm EST Tuesday 23 September 2014 (issued every 30 minutes, with the page automatically refreshed every 10 minutes)

About weather observations | Map of weather stations | Latest weather observations for TAS | Other Formats
Station Details ID: 200838 Name: HOGAN ISLAND Lat: -39.22 Lon: 146.98 Height: 116.0 m
Data from the previous 72 hours. | See also: Recent months at Hogan Island
Date/Time
EST
Temp
°C
App
Temp
°C
Dew
Point
Rel
Hum
%
Delta-T
°C
Wind Press
QNH
hPa
Press
MSL
hPa
Rain
since 9 am
mm
Dir
 
Spd
km/h
Gust
km/h
Spd
kts
Gust
kts
23/08:00pm 13.1 8.6 9.9 81 1.6 NE 24 32 13 17 1023.1 - 0.0
23/07:30pm 12.6 8.4 9.8 83 1.4 NE 22 28 12 15 1023.1 - 0.0
23/07:00pm 12.8 8.9 9.3 79 1.8 NE 20 26 11 14 1023.3 - 0.0
23/06:30pm 13.4 9.6 8.9 74 2.3 NE 19 24 10 13 1023.2 - 0.0
23/06:00pm 13.5 9.7 9.0 74 2.3 NE 19 24 10 13 1023.2 1023.3 0.0
23/05:30pm 14.2 10.6 6.6 60 3.7 ENE 15 17 8 9 1023.2 - 0.0
23/05:00pm 15.4 11.2 5.9 53 4.6 ENE 17 19 9 10 1023.4 - 0.0
23/04:30pm 16.1 12.6 7.1 55 4.5 ENE 15 17 8 9 1023.5 - 0.0
23/04:00pm 16.4 13.5 8.1 58 4.2 ENE 13 15 7 8 1023.5 - 0.0
23/03:30pm 16.8 14.6 9.5 62 3.8 ENE 11 13 6 7 1023.5 - 0.0
23/03:00pm 17.4 15.4 10.1 62 3.9 ENE 11 11 6 6 1023.7 1023.8 0.0
23/02:30pm 18.8 17.2 10.1 57 4.7 NE 9 9 5 5 1024.1 - 0.0
23/02:00pm 19.2 17.9 9.9 55 5.0 NE 7 9 4 5 1024.4 - 0.0
23/01:30pm 19.5 18.7 11.8 61 4.3 NNE 7 9 4 5 1024.7 - 0.0
23/12:30pm 19.3 18.1 11.6 61 4.3 NNE 9 13 5 7 1025.2 - 0.0
23/12:00pm 19.5 18.5 12.3 63 4.0 NNE 9 13 5 7 1025.6 1025.8 0.0
23/11:30am 19.3 18.2 11.8 62 4.2 NNE 9 11 5 6 1025.9 - 0.0
23/11:00am 18.5 17.1 10.8 61 4.2 NNE 9 13 5 7 1026.3 - 0.0
23/10:30am 18.4 15.1 8.1 51 5.3 NNW 15 17 8 9 1026.5 - 0.0
23/10:00am 17.5 13.6 7.3 51 5.1 N 17 20 9 11 1026.9 - 0.0
23/09:30am 16.4 12.9 8.9 61 3.9 N 17 20 9 11 1027.0 - 0.0
23/09:00am 17.0 12.8 5.9 48 5.4 N 17 22 9 12 1027.2 1027.4 0.0
23/08:30am 16.5 12.1 6.6 52 4.9 N 19 24 10 13 1027.1 - 0.0
23/08:00am 16.0 13.2 8.5 61 3.8 N 13 20 7 11 1027.0 - 0.0
23/07:30am 15.0 11.3 8.0 63 3.5 NNW 17 24 9 13 1027.0 - 0.0
23/07:00am 14.7 10.8 8.6 67 3.1 N 19 24 10 13 1027.0 - 0.0
23/06:30am 13.7 9.9 9.0 73 2.4 N 19 22 10 12 1026.9 - 0.0
23/06:00am 13.6 9.4 8.4 71 2.6 N 20 24 11 13 1026.7 1026.9 0.0
23/05:30am 13.2 9.6 8.3 72 2.4 N 17 20 9 11 1026.6 - 0.0
23/05:00am 13.6 9.6 8.4 71 2.6 N 19 22 10 12 1026.4 - 0.0
23/04:30am 13.6 9.6 8.2 70 2.7 N 19 22 10 12 1026.4 - 0.0
23/04:00am 13.5 9.5 8.1 70 2.7 N 19 22 10 12 1026.3 - 0.0
23/03:30am 13.9 10.1 7.7 66 3.1 NNW 17 20 9 11 1026.3 - 0.0
23/03:00am 13.1 9.1 8.2 72 2.4 N 19 22 10 12 1026.3 1026.5 0.0
23/02:30am 12.9 9.4 10.1 83 1.5 NNW 19 20 10 11 1026.6 - 0.0
23/02:00am 12.1 8.4 10.3 89 0.9 N 20 24 11 13 1026.6 - 0.0
23/01:30am 12.0 8.1 10.9 93 0.6 N 22 26 12 14 1026.8 - 0.0
23/01:00am 12.0 8.2 11.2 95 0.4 N 22 28 12 15 1027.0 - 0.0
23/12:30am 11.8 8.0 11.0 95 0.4 N 22 28 12 15 1027.1 - 0.0
23/12:00am 11.9 8.5 11.1 95 0.4 N 20 26 11 14 1027.2 1027.4 0.0
 
Date/Time
EST
Temp
°C
App
Temp
°C
Dew
Point
Rel
Hum
%
Delta-T
°C
Wind Press
QNH
hPa
Press
MSL
hPa
Rain
since 9 am
mm
Dir
 
Spd
km/h
Gust
km/h
Spd
kts
Gust
kts
22/11:30pm 11.9 8.5 11.1 95 0.4 N 20 24 11 13 1027.4 - 0.0
22/11:00pm 11.8 8.3 11.0 95 0.4 N 20 26 11 14 1027.7 - 0.0
22/10:30pm 11.6 8.1 10.8 95 0.4 N 20 24 11 13 1027.9 - 0.0
22/10:00pm 11.6 7.3 10.8 95 0.4 N 24 30 13 16 1027.7 - 0.0
22/09:30pm 11.5 7.2 10.6 94 0.5 N 24 28 13 15 1027.7 - 0.0
22/09:00pm 11.4 7.0 10.5 94 0.5 N 24 28 13 15 1027.7 1027.9 0.0
22/08:30pm 11.3 6.8 10.2 93 0.6 NNE 24 28 13 15 1027.6 - 0.0
22/08:00pm 11.3 7.2 10.0 92 0.7 NNE 22 26 12 14 1027.6 - 0.0
22/07:30pm 11.3 7.2 10.0 92 0.7 NNE 22 26 12 14 1027.7 - 0.0
22/07:00pm 11.1 6.8 9.5 90 0.8 NNE 22 24 12 13 1027.7 - 0.0
22/06:30pm 11.1 7.3 9.2 88 1.0 NE 19 20 10 11 1027.4 - 0.0
22/06:00pm 11.0 7.2 8.9 87 1.0 NE 19 22 10 12 1027.3 1027.5 0.0
22/05:30pm 11.7 7.8 9.3 85 1.2 ENE 20 24 11 13 1027.1 - 0.0
22/05:00pm 12.3 8.4 9.3 82 1.5 ENE 20 22 11 12 1027.0 - 0.0
22/04:30pm 13.0 9.3 9.6 80 1.7 ENE 19 20 10 11 1027.0 - 0.0
22/04:00pm 13.4 9.7 9.6 78 2.0 ENE 19 20 10 11 1026.9 - 0.0
22/03:30pm 14.0 10.4 10.0 77 2.1 NE 19 20 10 11 1027.0 - 0.0
22/03:00pm 14.1 10.3 9.7 75 2.3 ENE 20 24 11 13 1027.2 1027.4 0.0
22/02:30pm 14.3 10.7 9.7 74 2.4 ENE 19 22 10 12 1027.3 - 0.0
22/02:00pm 15.0 11.4 10.0 72 2.6 NE 19 20 10 11 1027.4 - 0.0
22/01:30pm 14.7 11.0 9.5 71 2.7 NNE 19 24 10 13 1027.7 - 0.0
22/01:00pm 14.7 10.8 9.3 70 2.8 NNE 20 24 11 13 1027.8 - 0.0
22/12:30pm 14.9 10.9 10.3 74 2.4 NNE 22 26 12 14 1028.3 - 0.0
22/12:00pm 15.0 11.4 10.4 74 2.4 NNE 20 24 11 13 1028.7 1028.9 0.0
22/11:30am 14.9 11.4 10.3 74 2.4 NNE 19 26 10 14 1029.2 - 0.0
22/11:00am 14.8 12.1 10.4 75 2.3 NNE 15 20 8 11 1029.3 - 0.0
22/10:30am 14.6 11.5 10.4 76 2.2 NNE 17 20 9 11 1029.5 - 0.0
22/10:00am 14.3 10.8 10.1 76 2.2 N 19 24 10 13 1029.8 - 0.0
22/09:30am 13.2 10.6 9.5 78 1.9 N 13 17 7 9 1030.1 - 0.0
22/09:00am 12.9 10.3 9.5 80 1.7 NNW 13 15 7 8 1030.2 1030.3 0.0
22/08:30am 12.7 10.2 9.7 82 1.5 N 13 17 7 9 1030.1 - 0.0
22/08:00am 12.0 9.4 9.4 84 1.3 N 13 17 7 9 1030.0 - 0.0
22/07:30am 11.6 9.8 9.5 87 1.1 NNW 9 13 5 7 1029.8 - 0.0
22/07:00am 10.8 8.1 8.9 88 0.9 NNW 13 17 7 9 1029.7 - 0.0
22/06:30am 10.3 7.5 8.6 89 0.8 NNW 13 17 7 9 1029.5 - 0.0
22/06:00am 10.0 6.8 8.3 89 0.8 NNW 15 19 8 10 1029.2 1029.3 0.0
22/05:30am 10.0 6.8 8.3 89 0.8 N 15 19 8 10 1029.0 - 0.0
22/05:00am 9.9 6.2 8.0 88 0.9 N 17 20 9 11 1028.9 - 0.0
22/04:30am 9.9 7.3 7.8 87 1.0 NNW 11 15 6 8 1028.7 - 0.0
22/04:00am 10.2 6.9 8.1 87 1.0 NW 15 19 8 10 1028.7 - 0.0
22/03:30am 10.6 6.7 8.5 87 1.0 WNW 19 22 10 12 1028.7 - 0.0
22/03:00am 10.7 6.2 8.6 87 1.0 WNW 22 26 12 14 1028.9 1029.0 0.0
22/02:30am 11.0 6.9 8.8 86 1.1 WNW 20 24 11 13 1029.1 - 0.0
22/02:00am 10.7 6.6 8.5 86 1.1 W 20 24 11 13 1029.1 - 0.0
22/01:30am 10.6 6.1 8.4 86 1.1 W 22 26 12 14 1029.1 - 0.0
22/01:00am 10.7 6.6 8.5 86 1.1 W 20 24 11 13 1029.1 - 0.0
22/12:30am 10.8 6.3 8.6 86 1.1 W 22 26 12 14 1029.1 - 0.0
22/12:00am 10.8 6.3 8.4 85 1.2 W 22 26 12 14 1029.2 1029.3 0.0
 
Date/Time
EST
Temp
°C
App
Temp
°C
Dew
Point
Rel
Hum
%
Delta-T
°C
Wind Press
QNH
hPa
Press
MSL
hPa
Rain
since 9 am
mm
Dir
 
Spd
km/h
Gust
km/h
Spd
kts
Gust
kts
21/11:30pm 10.9 6.1 8.7 86 1.1 W 24 26 13 14 1029.3 - 0.0
21/11:00pm 10.9 5.7 8.7 86 1.1 W 26 28 14 15 1029.5 - 0.0
21/10:30pm 10.9 5.7 8.7 86 1.1 WSW 26 28 14 15 1029.5 - 0.0
21/10:00pm 11.1 5.9 9.0 87 1.0 W 26 30 14 16 1029.6 - 0.0
21/09:30pm 11.1 5.6 9.2 88 1.0 W 28 32 15 17 1029.7 - 0.0
21/09:00pm 11.1 5.6 9.0 87 1.0 W 28 30 15 16 1029.7 1029.8 0.0
21/08:30pm 11.2 5.3 9.1 87 1.1 W 30 32 16 17 1029.8 - 0.0
21/08:00pm 11.2 5.3 8.9 86 1.1 W 30 35 16 19 1029.7 - 0.0
21/07:30pm 11.4 5.1 9.0 85 1.2 W 32 37 17 20 1029.6 - 0.0
21/07:00pm 11.4 4.5 8.8 84 1.3 WSW 35 41 19 22 1029.5 - 0.0
21/06:30pm 11.5 3.7 8.4 81 1.5 W 39 44 21 24 1029.3 - 0.0
21/06:00pm 11.8 4.3 8.1 78 1.8 W 37 44 20 24 1029.0 1029.1 0.0
21/05:30pm 12.3 4.8 8.0 75 2.1 W 37 44 20 24 1028.7 - 0.0
21/05:00pm 12.9 4.7 8.4 74 2.3 W 41 46 22 25 1028.6 - 0.0
21/04:30pm 13.3 5.1 8.4 72 2.5 W 41 46 22 25 1028.6 - 0.0
21/04:00pm 13.6 5.0 8.0 69 2.8 W 43 50 23 27 1028.6 - 0.0
21/03:30pm 14.2 5.5 8.4 68 2.9 W 44 50 24 27 1028.5 - 0.0
21/03:00pm 14.1 5.3 8.1 67 3.0 W 44 52 24 28 1028.5 1028.7 0.0
21/02:30pm 14.3 5.6 7.6 64 3.3 W 43 50 23 27 1028.7 - 0.0
21/02:00pm 14.4 5.6 7.9 65 3.2 W 44 50 24 27 1028.9 - 0.0
21/01:30pm 14.3 5.4 7.8 65 3.2 W 44 50 24 27 1028.9 - 0.0
21/01:00pm 14.6 5.4 7.9 64 3.4 W 46 52 25 28 1029.1 - 0.0
21/12:30pm 14.4 5.5 7.5 63 3.4 W 44 52 24 28 1029.3 - 0.0
21/12:00pm 14.3 6.0 7.8 65 3.2 W 41 48 22 26 1029.5 1029.6 0.0
21/11:30am 14.5 6.6 7.8 64 3.3 W 39 46 21 25 1029.8 - 0.0
21/11:00am 14.0 5.7 7.8 66 3.1 W 41 48 22 26 1029.9 - 0.0
21/10:30am 13.3 4.8 6.9 65 3.1 W 41 46 22 25 1029.9 - 0.0
21/10:00am 13.6 5.1 6.9 64 3.3 WSW 41 46 22 25 1029.9 - 0.0
21/09:30am 13.4 5.3 7.2 66 3.0 WSW 39 46 21 25 1030.0 - 0.0
21/09:00am 12.5 3.9 6.3 66 2.9 WSW 41 52 22 28 1029.9 1030.0 0.0
21/08:30am 12.0 2.3 5.9 66 2.9 WSW 46 56 25 30 1029.6 - 0.0
21/08:00am 11.9 2.9 6.6 70 2.5 WSW 43 50 23 27 1029.5 - 0.0
21/07:30am 11.5 2.2 6.0 69 2.6 WSW 44 54 24 29 1029.4 - 0.0
21/07:00am 11.7 2.5 6.4 70 2.5 WSW 44 56 24 30 1028.9 - 0.0
21/06:30am 11.1 1.4 6.0 71 2.4 WSW 46 54 25 29 1028.7 - 0.0
21/06:00am 10.8 1.6 6.4 74 2.1 SW 44 56 24 30 1028.4 1028.6 0.0
21/05:30am 10.6 1.0 6.2 74 2.1 SW 46 56 25 30 1028.1 - 0.0
21/05:00am 10.6 1.0 6.4 75 2.0 WSW 46 56 25 30 1027.7 - 0.0
21/04:30am 10.6 1.0 6.2 74 2.1 SW 46 54 25 29 1027.5 - 0.0
21/04:00am 10.6 0.6 6.2 74 2.1 SW 48 57 26 31 1027.4 - 0.0
21/03:30am 10.9 0.6 6.3 73 2.2 WSW 50 59 27 32 1027.5 - 0.0
21/03:00am 10.7 -0.5 6.1 73 2.1 WSW 54 61 29 33 1027.2 1027.4 0.0
21/02:30am 10.6 -0.2 6.0 73 2.1 WSW 52 63 28 34 1027.4 - 0.0
21/02:00am 10.6 -0.2 6.2 74 2.1 WSW 52 59 28 32 1027.5 - 0.0
21/01:30am 10.6 0.2 6.2 74 2.1 WSW 50 59 27 32 1027.8 - 0.0
21/01:00am 10.6 0.7 6.4 75 2.0 WSW 48 56 26 30 1028.0 - 0.0
21/12:30am 10.8 0.6 6.9 77 1.9 WSW 50 56 27 30 1027.8 - 0.0
21/12:00am 10.8 0.9 6.7 76 1.9 WSW 48 56 26 30 1027.8 1028.0 0.0
 
Date/Time
EST
Temp
°C
App
Temp
°C
Dew
Point
Rel
Hum
%
Delta-T
°C
Wind Press
QNH
hPa
Press
MSL
hPa
Rain
since 9 am
mm
Dir
 
Spd
km/h
Gust
km/h
Spd
kts
Gust
kts
20/11:30pm 10.8 0.5 6.7 76 1.9 WSW 50 57 27 31 1027.8 - 0.0
20/11:00pm 11.1 1.2 6.8 75 2.1 WSW 48 56 26 30 1028.0 - 0.0
20/10:30pm 10.9 1.4 6.8 76 2.0 WSW 46 52 25 28 1027.9 - 0.0
20/10:00pm 11.0 1.9 6.7 75 2.0 W 44 48 24 26 1027.7 - 0.0
20/09:30pm 10.9 1.8 6.6 75 2.0 WSW 44 48 24 26 1027.8 - 0.0
20/09:00pm 11.2 2.3 6.9 75 2.0 W 43 50 23 27 1027.8 1028.0 0.0
20/08:30pm 11.3 2.4 7.0 75 2.1 WSW 43 50 23 27 1027.8 - 0.0

Other Formats:

Comma delimited format used in spreadsheet applications
http://www.bom.gov.au/fwo/IDT60801/IDT60801.94949.axf

JavaScript Object Notation format (JSON) in row-major order
http://www.bom.gov.au/fwo/IDT60801/IDT60801.94949.json